Time;durP1;ratioP1;P1;durP2;ratioP2;P2;SDS_P1;SDS_P2;PMS_P1;PMS_P2;Temp;Humidity;BMP_temperature;BMP_pressure;BME280_temperature;BME280_humidity;BME280_pressure;Samples;Min_cycle;Max_cycle;Signal;HPM_P1;HPM_P2
2023/12/15 00:01:33;;;;;;;5.15;2.85;;;;;;;;;;5066857;28;20184;-83
2023/12/15 00:03:59;;;;;;;4.60;2.67;;;;;;;;;;5045490;28;20028;-86
2023/12/15 00:06:24;;;;;;;4.93;2.65;;;;;;;;;;5040725;28;20029;-85
2023/12/15 00:08:49;;;;;;;4.38;2.60;;;;;;;;;;5043851;28;20047;-81
2023/12/15 00:11:15;;;;;;;3.28;2.33;;;;;;;;;;5043371;28;20036;-87
2023/12/15 00:13:41;;;;;;;4.13;3.15;;;;;;;;;;5042970;28;20035;-84
2023/12/15 00:16:07;;;;;;;6.65;2.40;;;;;;;;;;5044222;28;20056;-85
2023/12/15 00:18:32;;;;;;;4.10;2.25;;;;;;;;;;5041608;28;20021;-83
2023/12/15 00:20:57;;;;;;;11.15;2.90;;;;;;;;;;5035979;28;20540;-85
2023/12/15 00:23:23;;;;;;;6.97;2.90;;;;;;;;;;5033377;28;20032;-83
2023/12/15 00:25:48;;;;;;;5.22;2.88;;;;;;;;;;5047491;28;20051;-86
2023/12/15 00:28:14;;;;;;;6.00;2.35;;;;;;;;;;5050692;28;20162;-87
2023/12/15 00:30:39;;;;;;;3.67;2.25;;;;;;;;;;5038809;28;20111;-85
2023/12/15 00:33:04;;;;;;;4.55;3.00;;;;;;;;;;5046763;28;20095;-85
2023/12/15 00:35:30;;;;;;;4.05;2.38;;;;;;;;;;5040811;28;20020;-82
2023/12/15 00:37:55;;;;;;;2.58;1.65;;;;;;;;;;5048010;28;20060;-86
2023/12/15 00:40:22;;;;;;;4.40;3.05;;;;;;;;;;5042430;28;20081;-86
2023/12/15 00:42:48;;;;;;;5.35;3.33;;;;;;;;;;5049002;28;20035;-85
2023/12/15 00:45:13;;;;;;;4.50;2.95;;;;;;;;;;5053613;28;20037;-88
2023/12/15 00:47:39;;;;;;;6.22;2.20;;;;;;;;;;5049973;28;20032;-88
2023/12/15 00:50:05;;;;;;;5.45;2.95;;;;;;;;;;5055146;28;20040;-85
2023/12/15 00:52:30;;;;;;;5.85;2.67;;;;;;;;;;5051348;28;20030;-84
2023/12/15 00:54:56;;;;;;;4.68;2.03;;;;;;;;;;5039354;28;20047;-87
2023/12/15 00:57:24;;;;;;;4.80;2.58;;;;;;;;;;5044466;28;20021;-85
2023/12/15 00:59:50;;;;;;;6.10;2.47;;;;;;;;;;5042778;28;20037;-87
2023/12/15 01:02:15;;;;;;;3.75;2.70;;;;;;;;;;5041193;28;20029;-85
2023/12/15 01:04:40;;;;;;;5.10;2.58;;;;;;;;;;5039453;28;20029;-88
2023/12/15 01:07:06;;;;;;;5.53;3.17;;;;;;;;;;5044298;28;20093;-85
2023/12/15 01:09:31;;;;;;;1.83;1.35;;;;;;;;;;5028795;28;20056;-86
2023/12/15 01:11:56;;;;;;;4.35;3.38;;;;;;;;;;5050682;28;20071;-85
2023/12/15 01:14:22;;;;;;;4.50;2.85;;;;;;;;;;5033753;28;20101;-87
2023/12/15 01:16:48;;;;;;;5.78;2.63;;;;;;;;;;5035785;28;20017;-87
2023/12/15 01:19:15;;;;;;;5.72;3.45;;;;;;;;;;5044545;28;20041;-87
2023/12/15 01:21:40;;;;;;;5.35;3.38;;;;;;;;;;5032711;28;20042;-84
2023/12/15 01:24:06;;;;;;;5.65;2.88;;;;;;;;;;5032040;28;20037;-88
2023/12/15 01:26:31;;;;;;;5.30;3.20;;;;;;;;;;5042601;28;20032;-87
2023/12/15 01:28:57;;;;;;;6.15;2.28;;;;;;;;;;5041186;28;20029;-86
2023/12/15 01:31:22;;;;;;;6.22;3.35;;;;;;;;;;5031873;28;20017;-86
2023/12/15 01:33:47;;;;;;;6.75;2.75;;;;;;;;;;5035444;28;20022;-85
2023/12/15 01:36:13;;;;;;;9.48;3.63;;;;;;;;;;5049918;28;20037;-85
2023/12/15 01:38:38;;;;;;;3.50;2.35;;;;;;;;;;5035191;28;20025;-88
2023/12/15 01:41:04;;;;;;;4.90;3.05;;;;;;;;;;5032014;28;20022;-86
2023/12/15 01:43:29;;;;;;;7.13;3.20;;;;;;;;;;5034799;28;20029;-87
2023/12/15 01:45:55;;;;;;;5.90;2.83;;;;;;;;;;5034653;28;20033;-88
2023/12/15 01:48:22;;;;;;;3.72;2.90;;;;;;;;;;5034951;28;20152;-86
2023/12/15 01:50:47;;;;;;;5.88;3.65;;;;;;;;;;5033325;28;20018;-88
2023/12/15 01:53:12;;;;;;;4.55;2.85;;;;;;;;;;5035334;28;20112;-86
2023/12/15 01:55:38;;;;;;;5.95;4.03;;;;;;;;;;5034687;28;20076;-86
2023/12/15 01:58:03;;;;;;;7.68;2.47;;;;;;;;;;5033782;28;20073;-87
2023/12/15 02:00:28;;;;;;;1.67;1.52;;;;;;;;;;5034018;28;20105;-88
2023/12/15 02:02:53;;;;;;;2.03;1.83;;;;;;;;;;5026194;28;20104;-85
2023/12/15 02:05:19;;;;;;;2.17;1.27;;;;;;;;;;5034637;28;20089;-89
2023/12/15 02:07:44;;;;;;;3.17;2.40;;;;;;;;;;5034000;28;20021;-87
2023/12/15 02:10:10;;;;;;;3.63;3.33;;;;;;;;;;5034420;28;20044;-87
2023/12/15 02:12:35;;;;;;;7.03;3.38;;;;;;;;;;5034593;28;20025;-88
2023/12/15 02:15:01;;;;;;;5.47;3.03;;;;;;;;;;5033303;28;20021;-87
2023/12/15 02:17:26;;;;;;;4.90;3.42;;;;;;;;;;5033737;28;20030;-86
2023/12/15 02:19:51;;;;;;;3.95;2.80;;;;;;;;;;5031319;28;20148;-86
2023/12/15 02:22:20;;;;;;;4.00;2.75;;;;;;;;;;5033009;28;20039;-87
2023/12/15 02:24:46;;;;;;;4.00;2.50;;;;;;;;;;5033171;28;20037;-84
2023/12/15 02:27:11;;;;;;;4.90;3.58;;;;;;;;;;5036026;28;20020;-85
2023/12/15 02:29:36;;;;;;;4.40;3.20;;;;;;;;;;5039054;28;20044;-86
2023/12/15 02:32:02;;;;;;;6.68;3.05;;;;;;;;;;5033762;28;20037;-88
2023/12/15 02:34:27;;;;;;;4.20;2.22;;;;;;;;;;5033922;28;20220;-86
2023/12/15 02:36:53;;;;;;;5.25;3.55;;;;;;;;;;5033634;28;20108;-86
2023/12/15 02:39:18;;;;;;;4.38;2.95;;;;;;;;;;5037179;28;20479;-87
2023/12/15 02:41:46;;;;;;;4.05;2.20;;;;;;;;;;5038708;28;20028;-87
2023/12/15 02:44:12;;;;;;;9.13;2.55;;;;;;;;;;5038410;28;20483;-86
2023/12/15 02:46:37;;;;;;;3.85;2.40;;;;;;;;;;5037092;28;20041;-87
2023/12/15 02:49:03;;;;;;;4.70;2.80;;;;;;;;;;5037772;28;20029;-86
2023/12/15 02:51:29;;;;;;;4.75;2.97;;;;;;;;;;5037457;28;20087;-87
2023/12/15 02:53:58;;;;;;;3.92;2.80;;;;;;;;;;5037359;28;20051;-86
2023/12/15 02:56:23;;;;;;;2.63;2.00;;;;;;;;;;5038409;28;20048;-87
2023/12/15 02:58:48;;;;;;;5.03;3.08;;;;;;;;;;5037383;28;20037;-83
2023/12/15 03:01:14;;;;;;;4.00;2.15;;;;;;;;;;5037582;28;20061;-87
2023/12/15 03:03:39;;;;;;;2.67;2.33;;;;;;;;;;5045649;28;20057;-85
2023/12/15 03:06:05;;;;;;;3.42;2.20;;;;;;;;;;5038354;28;20391;-87
2023/12/15 03:08:31;;;;;;;7.38;4.00;;;;;;;;;;5036556;28;20378;-86
2023/12/15 03:10:57;;;;;;;4.70;3.22;;;;;;;;;;5036401;28;20412;-85
2023/12/15 03:13:24;;;;;;;6.25;2.58;;;;;;;;;;5036786;28;20724;-87
2023/12/15 03:15:50;;;;;;;4.75;2.78;;;;;;;;;;5036734;28;20068;-86
2023/12/15 03:18:15;;;;;;;4.70;3.20;;;;;;;;;;5037564;28;20025;-85
2023/12/15 03:20:41;;;;;;;4.80;3.35;;;;;;;;;;5037085;28;20052;-86
2023/12/15 03:23:08;;;;;;;3.85;2.50;;;;;;;;;;5036398;28;20057;-86
2023/12/15 03:25:33;;;;;;;5.78;2.50;;;;;;;;;;5035348;28;20048;-85
2023/12/15 03:28:00;;;;;;;4.03;2.63;;;;;;;;;;5035878;28;20033;-83
2023/12/15 03:30:25;;;;;;;6.05;3.40;;;;;;;;;;5035484;28;20025;-84
2023/12/15 03:32:51;;;;;;;3.67;2.33;;;;;;;;;;5034445;28;20040;-86
2023/12/15 03:35:16;;;;;;;3.67;2.85;;;;;;;;;;5035290;28;20487;-86
2023/12/15 03:37:41;;;;;;;4.28;2.85;;;;;;;;;;5049699;28;20033;-81
2023/12/15 03:40:07;;;;;;;3.28;2.70;;;;;;;;;;5042995;28;20030;-87
2023/12/15 03:42:32;;;;;;;6.03;2.83;;;;;;;;;;5037116;28;20021;-86
2023/12/15 03:44:58;;;;;;;3.95;2.47;;;;;;;;;;5039320;28;20024;-86
2023/12/15 03:47:23;;;;;;;3.78;2.60;;;;;;;;;;5037072;28;20532;-87
2023/12/15 03:49:48;;;;;;;3.85;1.95;;;;;;;;;;5036286;28;20040;-85
2023/12/15 03:52:14;;;;;;;11.00;3.05;;;;;;;;;;5037044;28;20483;-86
2023/12/15 03:54:39;;;;;;;5.40;3.08;;;;;;;;;;5038169;28;20365;-86
2023/12/15 03:57:04;;;;;;;9.88;3.15;;;;;;;;;;5038556;28;20352;-87
2023/12/15 03:59:30;;;;;;;3.47;2.45;;;;;;;;;;5041902;28;20012;-85
2023/12/15 04:01:56;;;;;;;4.18;2.58;;;;;;;;;;5051779;28;20048;-87
2023/12/15 04:04:21;;;;;;;5.40;3.30;;;;;;;;;;5051233;28;20021;-86
2023/12/15 04:06:46;;;;;;;3.33;2.65;;;;;;;;;;5055347;28;20401;-87
2023/12/15 04:09:12;;;;;;;6.13;3.13;;;;;;;;;;5044390;28;20045;-86
2023/12/15 04:11:37;;;;;;;5.22;3.05;;;;;;;;;;5035273;28;20033;-86
2023/12/15 04:14:04;;;;;;;6.47;3.50;;;;;;;;;;5035349;28;20032;-86
2023/12/15 04:16:29;;;;;;;6.57;2.25;;;;;;;;;;5032476;28;20060;-85
2023/12/15 04:18:54;;;;;;;6.35;3.83;;;;;;;;;;5034394;28;20017;-85
2023/12/15 04:21:20;;;;;;;5.05;3.33;;;;;;;;;;5032762;28;20029;-87
2023/12/15 04:23:45;;;;;;;3.70;2.50;;;;;;;;;;5043752;28;20024;-84
2023/12/15 04:26:11;;;;;;;5.13;3.22;;;;;;;;;;5036796;28;20049;-84
2023/12/15 04:28:36;;;;;;;3.97;2.50;;;;;;;;;;5035072;28;20080;-87
2023/12/15 04:31:02;;;;;;;5.75;3.42;;;;;;;;;;5034388;28;20472;-85
2023/12/15 04:33:27;;;;;;;4.70;2.97;;;;;;;;;;5034953;28;20025;-86
2023/12/15 04:35:52;;;;;;;6.78;2.78;;;;;;;;;;5048730;28;20062;-87
2023/12/15 04:38:18;;;;;;;6.40;3.35;;;;;;;;;;5038341;28;20017;-85
2023/12/15 04:40:43;;;;;;;4.72;2.92;;;;;;;;;;5054551;28;20033;-85
2023/12/15 04:43:09;;;;;;;5.00;3.03;;;;;;;;;;5055493;28;20486;-86
2023/12/15 04:45:34;;;;;;;4.05;2.47;;;;;;;;;;5047324;28;20036;-86
2023/12/15 04:47:59;;;;;;;4.95;2.80;;;;;;;;;;5036539;28;20033;-85
2023/12/15 04:50:25;;;;;;;5.80;3.15;;;;;;;;;;5047981;28;20098;-81
2023/12/15 04:52:50;;;;;;;8.65;3.83;;;;;;;;;;5055511;28;20101;-82
2023/12/15 04:55:15;;;;;;;5.30;2.90;;;;;;;;;;5056443;28;20037;-81
2023/12/15 04:57:41;;;;;;;4.15;2.63;;;;;;;;;;5053101;28;20022;-85
2023/12/15 05:00:07;;;;;;;5.60;2.97;;;;;;;;;;5052643;28;20320;-85
2023/12/15 05:02:32;;;;;;;3.78;2.85;;;;;;;;;;5037832;28;20017;-86
2023/12/15 05:04:58;;;;;;;5.57;3.47;;;;;;;;;;5040119;28;20024;-87
2023/12/15 05:07:23;;;;;;;5.00;3.00;;;;;;;;;;5034828;28;20174;-85
2023/12/15 05:09:48;;;;;;;7.03;3.05;;;;;;;;;;5032502;28;20079;-86
2023/12/15 05:12:14;;;;;;;9.52;4.20;;;;;;;;;;5033876;28;20031;-85
2023/12/15 05:14:39;;;;;;;4.88;3.42;;;;;;;;;;5032080;28;20060;-87
2023/12/15 05:17:04;;;;;;;5.60;2.88;;;;;;;;;;5032537;28;20655;-84
2023/12/15 05:19:30;;;;;;;4.35;2.92;;;;;;;;;;5031868;28;20021;-86
2023/12/15 05:21:55;;;;;;;5.55;3.22;;;;;;;;;;5032612;28;20479;-84
2023/12/15 05:24:20;;;;;;;6.63;2.58;;;;;;;;;;5039684;28;20033;-86
2023/12/15 05:26:46;;;;;;;5.05;2.67;;;;;;;;;;5033368;28;20432;-84
2023/12/15 05:29:11;;;;;;;5.00;2.80;;;;;;;;;;5034532;28;20438;-85
2023/12/15 05:31:36;;;;;;;3.95;2.38;;;;;;;;;;5034680;28;20025;-86
2023/12/15 05:34:02;;;;;;;3.97;2.42;;;;;;;;;;5046315;28;20028;-82
2023/12/15 05:36:27;;;;;;;6.07;2.58;;;;;;;;;;5042320;28;20032;-87
2023/12/15 05:38:53;;;;;;;4.30;2.72;;;;;;;;;;5034052;28;20024;-87
2023/12/15 05:41:18;;;;;;;4.72;3.17;;;;;;;;;;5034690;28;20017;-84
2023/12/15 05:43:44;;;;;;;4.10;2.97;;;;;;;;;;5032539;28;20056;-86
2023/12/15 05:46:09;;;;;;;4.38;3.22;;;;;;;;;;5033090;28;20083;-86
2023/12/15 05:48:35;;;;;;;4.47;3.28;;;;;;;;;;5033313;28;20021;-85
2023/12/15 05:51:01;;;;;;;5.95;3.03;;;;;;;;;;5033005;28;20454;-86
2023/12/15 05:53:27;;;;;;;4.10;2.70;;;;;;;;;;5034126;28;20103;-85
2023/12/15 05:55:53;;;;;;;5.40;2.85;;;;;;;;;;5033963;28;20033;-85
2023/12/15 05:58:18;;;;;;;4.72;2.92;;;;;;;;;;5032327;28;20033;-84
2023/12/15 06:00:44;;;;;;;3.72;2.72;;;;;;;;;;5032216;28;20038;-85
2023/12/15 06:03:10;;;;;;;5.57;3.45;;;;;;;;;;5033371;28;20527;-86
2023/12/15 06:05:35;;;;;;;6.50;3.10;;;;;;;;;;5034800;28;20030;-86
2023/12/15 06:08:01;;;;;;;5.40;3.20;;;;;;;;;;5034273;28;20030;-84
2023/12/15 06:10:27;;;;;;;3.00;2.60;;;;;;;;;;5032427;28;20032;-85
2023/12/15 06:12:52;;;;;;;3.47;2.50;;;;;;;;;;5034179;28;20116;-87
2023/12/15 06:15:17;;;;;;;5.45;3.78;;;;;;;;;;5039396;28;20029;-87
2023/12/15 06:17:43;;;;;;;3.28;2.30;;;;;;;;;;5041265;28;20052;-83
2023/12/15 06:20:10;;;;;;;5.13;2.30;;;;;;;;;;5038476;28;20053;-88
2023/12/15 06:22:35;;;;;;;4.00;2.75;;;;;;;;;;5037301;28;20025;-87
2023/12/15 06:25:01;;;;;;;4.38;2.75;;;;;;;;;;5036972;28;20036;-87
2023/12/15 06:27:26;;;;;;;4.53;3.22;;;;;;;;;;5037766;28;20132;-87
2023/12/15 06:29:51;;;;;;;3.42;2.22;;;;;;;;;;5037070;28;20025;-86
2023/12/15 06:32:17;;;;;;;5.53;3.38;;;;;;;;;;5038890;28;20021;-87
2023/12/15 06:34:42;;;;;;;4.18;2.67;;;;;;;;;;5041921;28;20021;-85
2023/12/15 06:37:08;;;;;;;3.72;3.00;;;;;;;;;;5035193;28;20017;-85
2023/12/15 06:39:33;;;;;;;4.25;2.53;;;;;;;;;;5044595;28;20629;-84
2023/12/15 06:41:59;;;;;;;8.43;3.90;;;;;;;;;;5037529;28;20324;-87
2023/12/15 06:44:24;;;;;;;5.82;3.45;;;;;;;;;;5036588;28;20029;-86
2023/12/15 06:46:50;;;;;;;7.15;3.63;;;;;;;;;;5042528;28;20109;-86
2023/12/15 06:49:17;;;;;;;3.83;2.75;;;;;;;;;;5038630;28;20126;-87
2023/12/15 06:51:43;;;;;;;6.40;3.53;;;;;;;;;;5034846;28;20029;-85
2023/12/15 06:54:09;;;;;;;3.90;2.63;;;;;;;;;;5035429;28;20696;-83
2023/12/15 06:56:37;;;;;;;8.07;3.47;;;;;;;;;;5036328;28;20029;-85
2023/12/15 06:59:02;;;;;;;4.55;3.63;;;;;;;;;;5034220;28;20030;-85
2023/12/15 07:01:28;;;;;;;8.27;3.65;;;;;;;;;;5036035;28;20032;-85
2023/12/15 07:03:53;;;;;;;4.63;3.42;;;;;;;;;;5035522;28;20028;-85
2023/12/15 07:06:18;;;;;;;4.65;2.97;;;;;;;;;;5035713;28;20479;-84
2023/12/15 07:08:43;;;;;;;5.18;3.20;;;;;;;;;;5038376;28;20132;-84
2023/12/15 07:11:09;;;;;;;7.07;3.30;;;;;;;;;;5053015;28;20048;-82
2023/12/15 07:13:34;;;;;;;4.63;2.75;;;;;;;;;;5043117;28;20034;-84
2023/12/15 07:16:01;;;;;;;6.53;3.70;;;;;;;;;;5036494;28;20017;-85
2023/12/15 07:18:27;;;;;;;6.57;2.97;;;;;;;;;;5033265;28;20113;-84
2023/12/15 07:20:52;;;;;;;6.72;3.63;;;;;;;;;;5034901;28;20057;-85
2023/12/15 07:23:17;;;;;;;5.75;3.63;;;;;;;;;;5035034;28;20024;-84
2023/12/15 07:25:43;;;;;;;4.72;3.75;;;;;;;;;;5035390;28;20430;-85
2023/12/15 07:28:08;;;;;;;4.05;2.55;;;;;;;;;;5033218;28;20100;-84
2023/12/15 07:30:33;;;;;;;6.05;3.55;;;;;;;;;;5035695;28;20022;-85
2023/12/15 07:32:59;;;;;;;7.40;3.47;;;;;;;;;;5039107;28;20061;-85
2023/12/15 07:35:24;;;;;;;4.90;3.75;;;;;;;;;;5055467;28;20110;-83
2023/12/15 07:37:51;;;;;;;6.50;3.58;;;;;;;;;;5042776;28;20017;-86
2023/12/15 07:40:16;;;;;;;3.67;2.85;;;;;;;;;;5033311;28;20048;-85
2023/12/15 07:42:42;;;;;;;6.85;3.83;;;;;;;;;;5035718;28;20328;-85
2023/12/15 07:45:08;;;;;;;5.70;3.75;;;;;;;;;;5038382;28;20024;-85
2023/12/15 07:47:33;;;;;;;5.40;3.90;;;;;;;;;;5032563;28;20389;-86
2023/12/15 07:49:58;;;;;;;5.88;3.58;;;;;;;;;;5033044;28;20543;-84
2023/12/15 07:52:25;;;;;;;4.90;3.42;;;;;;;;;;5034379;28;20014;-87
2023/12/15 07:54:50;;;;;;;4.95;3.85;;;;;;;;;;5035080;28;20041;-86
2023/12/15 07:57:15;;;;;;;7.03;4.20;;;;;;;;;;5034603;28;20060;-87
2023/12/15 07:59:41;;;;;;;6.13;3.97;;;;;;;;;;5033528;28;20022;-86
2023/12/15 08:02:06;;;;;;;7.65;4.32;;;;;;;;;;5033688;28;20029;-87
2023/12/15 08:04:32;;;;;;;4.00;3.22;;;;;;;;;;5035822;28;20025;-84
2023/12/15 08:06:57;;;;;;;7.45;4.15;;;;;;;;;;5039805;28;20034;-86
2023/12/15 08:09:23;;;;;;;7.15;3.90;;;;;;;;;;5033865;28;20033;-86
2023/12/15 08:11:48;;;;;;;5.35;3.80;;;;;;;;;;5035823;28;20013;-84
2023/12/15 08:14:13;;;;;;;7.63;4.38;;;;;;;;;;5033285;28;20037;-85
2023/12/15 08:16:39;;;;;;;4.65;3.60;;;;;;;;;;5035257;28;20494;-85
2023/12/15 08:19:06;;;;;;;4.85;3.20;;;;;;;;;;5033973;28;20036;-87
2023/12/15 08:21:32;;;;;;;5.72;3.35;;;;;;;;;;5035807;28;20029;-87
2023/12/15 08:23:57;;;;;;;8.85;4.22;;;;;;;;;;5034954;28;20029;-86
2023/12/15 08:26:26;;;;;;;4.95;3.33;;;;;;;;;;5034254;28;20025;-86
2023/12/15 08:28:53;;;;;;;5.72;3.70;;;;;;;;;;5035151;28;20029;-85
2023/12/15 08:31:21;;;;;;;6.88;3.50;;;;;;;;;;5034282;28;20021;-85
2023/12/15 08:33:46;;;;;;;4.05;3.30;;;;;;;;;;5042244;28;20020;-82
2023/12/15 08:36:12;;;;;;;6.65;3.67;;;;;;;;;;5037644;28;20025;-84
2023/12/15 08:38:37;;;;;;;8.88;4.22;;;;;;;;;;5034323;28;20186;-85
2023/12/15 08:41:03;;;;;;;4.88;3.47;;;;;;;;;;5034124;28;20112;-86
2023/12/15 08:43:28;;;;;;;7.22;3.20;;;;;;;;;;5036059;28;20033;-86
2023/12/15 08:45:54;;;;;;;4.10;3.22;;;;;;;;;;5035556;28;20113;-85
2023/12/15 08:48:19;;;;;;;5.95;4.00;;;;;;;;;;5034963;28;20055;-86
2023/12/15 08:50:44;;;;;;;5.78;3.78;;;;;;;;;;5037618;28;20074;-86
2023/12/15 08:53:12;;;;;;;7.28;3.90;;;;;;;;;;5042065;28;20045;-86
2023/12/15 08:55:37;;;;;;;5.40;3.78;;;;;;;;;;5045408;28;20018;-85
2023/12/15 08:58:03;;;;;;;6.65;4.07;;;;;;;;;;5046377;28;20049;-86
2023/12/15 09:00:28;;;;;;;6.05;3.58;;;;;;;;;;5038541;28;20033;-88
2023/12/15 09:02:54;;;;;;;5.68;3.35;;;;;;;;;;5035186;28;20360;-84
2023/12/15 09:05:23;;;;;;;7.32;4.05;;;;;;;;;;5036981;28;20035;-85
2023/12/15 09:07:49;;;;;;;7.53;3.75;;;;;;;;;;5035559;28;20487;-87
2023/12/15 09:10:14;;;;;;;6.35;4.03;;;;;;;;;;5038276;28;20087;-87
2023/12/15 09:12:39;;;;;;;8.07;3.85;;;;;;;;;;5039251;28;20147;-87
2023/12/15 09:15:05;;;;;;;5.50;3.45;;;;;;;;;;5038070;28;20030;-86
2023/12/15 09:17:30;;;;;;;5.72;3.78;;;;;;;;;;5037900;28;20088;-85
2023/12/15 09:19:56;;;;;;;8.23;3.50;;;;;;;;;;5036612;28;20387;-87
2023/12/15 09:22:21;;;;;;;4.70;3.42;;;;;;;;;;5036669;28;20391;-86
2023/12/15 09:24:47;;;;;;;7.05;3.97;;;;;;;;;;5035651;28;20077;-86
2023/12/15 09:27:13;;;;;;;6.03;3.53;;;;;;;;;;5034667;28;20022;-86
2023/12/15 09:29:38;;;;;;;5.18;4.15;;;;;;;;;;5035935;28;20049;-88
2023/12/15 09:32:04;;;;;;;7.68;4.25;;;;;;;;;;5035641;28;20033;-85
2023/12/15 09:34:29;;;;;;;12.32;5.72;;;;;;;;;;5032660;28;20036;-86
2023/12/15 09:36:54;;;;;;;10.27;5.18;;;;;;;;;;5034615;28;20070;-87
2023/12/15 09:39:22;;;;;;;6.53;3.78;;;;;;;;;;5034377;28;20047;-85
2023/12/15 09:41:48;;;;;;;5.68;3.47;;;;;;;;;;5035611;28;20116;-86
2023/12/15 09:44:14;;;;;;;5.63;3.78;;;;;;;;;;5035200;28;20441;-88
2023/12/15 09:46:42;;;;;;;7.10;3.20;;;;;;;;;;5038359;28;20025;-85
2023/12/15 09:49:09;;;;;;;5.70;3.50;;;;;;;;;;5036046;28;20021;-85
2023/12/15 09:51:36;;;;;;;6.47;3.90;;;;;;;;;;5030866;28;20029;-86
2023/12/15 09:54:01;;;;;;;5.82;3.50;;;;;;;;;;5033519;28;20017;-86
2023/12/15 09:56:26;;;;;;;7.00;4.00;;;;;;;;;;5032921;28;20075;-87
2023/12/15 09:58:53;;;;;;;6.03;3.63;;;;;;;;;;5033140;28;20033;-87
2023/12/15 10:01:19;;;;;;;4.93;3.10;;;;;;;;;;5032745;28;20063;-87
2023/12/15 10:03:44;;;;;;;6.90;3.75;;;;;;;;;;5026392;28;20040;-87
2023/12/15 10:06:10;;;;;;;4.78;3.22;;;;;;;;;;5033315;28;20021;-85
2023/12/15 10:08:45;;;;;;;6.47;3.92;;;;;;;;;;5032611;28;20017;-85
2023/12/15 10:11:11;;;;;;;5.88;3.30;;;;;;;;;;5034168;28;20025;-85
2023/12/15 10:13:39;;;;;;;7.22;3.75;;;;;;;;;;5042717;28;20025;-84
2023/12/15 10:16:05;;;;;;;7.60;3.58;;;;;;;;;;5036342;28;20029;-86
2023/12/15 10:18:30;;;;;;;5.22;4.15;;;;;;;;;;5035072;28;20053;-87
2023/12/15 10:20:56;;;;;;;5.55;3.55;;;;;;;;;;5038859;28;20386;-87
2023/12/15 10:23:26;;;;;;;5.50;3.90;;;;;;;;;;5036989;28;20079;-88
2023/12/15 10:25:53;;;;;;;5.30;3.35;;;;;;;;;;5014400;28;20509;-86
2023/12/15 10:28:19;;;;;;;7.28;3.50;;;;;;;;;;5014517;28;20022;-87
2023/12/15 10:30:45;;;;;;;5.22;3.30;;;;;;;;;;5016973;28;20729;-87
2023/12/15 10:33:10;;;;;;;3.95;2.60;;;;;;;;;;5014709;28;20033;-86
2023/12/15 10:35:36;;;;;;;6.38;3.70;;;;;;;;;;5014994;28;20026;-85
2023/12/15 10:38:02;;;;;;;4.82;2.97;;;;;;;;;;5041462;28;20032;-85
2023/12/15 10:40:27;;;;;;;4.85;2.75;;;;;;;;;;5034565;28;20029;-87
2023/12/15 10:42:53;;;;;;;6.38;3.05;;;;;;;;;;5039987;28;20021;-83
2023/12/15 10:45:20;;;;;;;3.15;2.47;;;;;;;;;;5050022;28;20028;-86
2023/12/15 10:47:48;;;;;;;3.00;2.50;;;;;;;;;;5036849;28;20040;-87
2023/12/15 10:50:14;;;;;;;5.18;3.05;;;;;;;;;;5034609;28;20021;-87
2023/12/15 10:52:40;;;;;;;3.78;2.50;;;;;;;;;;5034333;28;20013;-88
2023/12/15 10:55:06;;;;;;;4.93;2.95;;;;;;;;;;5038373;28;20013;-87
2023/12/15 10:57:32;;;;;;;2.75;2.50;;;;;;;;;;5036619;28;20029;-89
2023/12/15 11:00:00;;;;;;;5.43;2.47;;;;;;;;;;5037387;28;20032;-85
2023/12/15 11:02:28;;;;;;;8.82;2.60;;;;;;;;;;5037129;28;20055;-86
2023/12/15 11:04:55;;;;;;;3.97;2.58;;;;;;;;;;5037791;28;20021;-87
2023/12/15 11:07:21;;;;;;;3.67;2.22;;;;;;;;;;5039578;28;20029;-85
2023/12/15 11:09:47;;;;;;;4.72;2.83;;;;;;;;;;5037137;28;20033;-87
2023/12/15 11:12:30;;;;;;;4.35;2.50;;;;;;;;;;5040499;28;20024;-87
2023/12/15 11:15:05;;;;;;;3.65;2.70;;;;;;;;;;5030038;28;20101;-88
2023/12/15 11:17:31;;;;;;;3.00;2.40;;;;;;;;;;5040619;28;20025;-85
2023/12/15 11:20:06;;;;;;;6.47;2.25;;;;;;;;;;5038373;28;20195;-86
2023/12/15 11:22:51;;;;;;;3.38;2.50;;;;;;;;;;5042626;28;20072;-86
2023/12/15 11:25:37;;;;;;;3.40;1.88;;;;;;;;;;5040691;28;20060;-86
2023/12/15 11:28:07;;;;;;;2.00;1.80;;;;;;;;;;5033502;28;20492;-84
2023/12/15 11:30:36;;;;;;;2.80;2.38;;;;;;;;;;5039060;28;20067;-85
2023/12/15 11:33:24;;;;;;;2.72;2.22;;;;;;;;;;5035618;28;20022;-85
2023/12/15 11:36:04;;;;;;;3.20;2.15;;;;;;;;;;5047269;28;20052;-88
2023/12/15 11:38:30;;;;;;;3.38;2.45;;;;;;;;;;5040952;28;20048;-88
2023/12/15 11:40:56;;;;;;;2.30;2.10;;;;;;;;;;5038697;28;20395;-88
2023/12/15 11:43:25;;;;;;;1.88;1.75;;;;;;;;;;5039581;28;20037;-89
2023/12/15 11:45:54;;;;;;;3.30;2.47;;;;;;;;;;5038321;28;20025;-86
2023/12/15 11:48:21;;;;;;;2.33;2.10;;;;;;;;;;5037369;28;20032;-87
2023/12/15 11:50:47;;;;;;;4.15;2.03;;;;;;;;;;5038694;28;20025;-86
2023/12/15 11:53:14;;;;;;;2.40;2.00;;;;;;;;;;5037406;28;20025;-89
2023/12/15 11:55:44;;;;;;;3.53;2.25;;;;;;;;;;5037293;28;20105;-88
2023/12/15 11:58:10;;;;;;;2.00;1.85;;;;;;;;;;5035654;28;20101;-87
2023/12/15 12:00:36;;;;;;;4.18;2.88;;;;;;;;;;5037896;28;20068;-88
2023/12/15 12:03:03;;;;;;;3.70;2.10;;;;;;;;;;5038669;28;20041;-88
2023/12/15 12:05:29;;;;;;;3.83;2.35;;;;;;;;;;5039964;28;20033;-87
2023/12/15 12:07:55;;;;;;;4.53;2.28;;;;;;;;;;5040035;28;20040;-87
2023/12/15 12:10:30;;;;;;;6.68;1.95;;;;;;;;;;5043876;28;20029;-89
2023/12/15 12:12:59;;;;;;;2.15;1.50;;;;;;;;;;5054145;28;20043;-86
2023/12/15 12:15:24;;;;;;;2.40;1.30;;;;;;;;;;5041309;28;20471;-88
2023/12/15 12:17:51;;;;;;;3.85;1.83;;;;;;;;;;5041913;28;20033;-87
2023/12/15 12:20:16;;;;;;;2.67;1.63;;;;;;;;;;5046586;28;20009;-89
2023/12/15 12:22:43;;;;;;;1.88;1.70;;;;;;;;;;5041274;28;20514;-87
2023/12/15 12:25:16;;;;;;;1.73;1.30;;;;;;;;;;5038709;28;20025;-89
2023/12/15 12:27:41;;;;;;;1.30;1.20;;;;;;;;;;5036983;28;20434;-87
2023/12/15 12:30:12;;;;;;;1.88;1.45;;;;;;;;;;5037619;28;20029;-88
2023/12/15 12:32:38;;;;;;;1.60;1.50;;;;;;;;;;5038077;28;20023;-88
2023/12/15 12:35:04;;;;;;;1.10;0.90;;;;;;;;;;5037467;28;20258;-87
2023/12/15 12:37:31;;;;;;;1.33;1.20;;;;;;;;;;5039550;28;20396;-87
2023/12/15 12:39:57;;;;;;;0.80;0.80;;;;;;;;;;5038717;28;20085;-87
2023/12/15 12:42:23;;;;;;;1.73;1.52;;;;;;;;;;5038236;28;20049;-88
2023/12/15 12:44:50;;;;;;;5.05;2.17;;;;;;;;;;5038407;28;20025;-87
2023/12/15 12:47:15;;;;;;;1.55;1.35;;;;;;;;;;5042845;28;20055;-89
2023/12/15 12:49:41;;;;;;;0.93;0.93;;;;;;;;;;5046696;28;20025;-88
2023/12/15 12:52:06;;;;;;;3.85;1.88;;;;;;;;;;5046937;28;20017;-88
2023/12/15 12:54:31;;;;;;;1.92;1.75;;;;;;;;;;5038532;28;20017;-87
2023/12/15 12:56:57;;;;;;;4.80;2.53;;;;;;;;;;5036616;28;20032;-87
2023/12/15 12:59:22;;;;;;;1.58;1.48;;;;;;;;;;5035550;28;20029;-88
2023/12/15 13:01:47;;;;;;;1.33;1.10;;;;;;;;;;5035726;28;20036;-86
2023/12/15 13:04:13;;;;;;;2.40;1.77;;;;;;;;;;5035444;28;20027;-88
2023/12/15 13:06:40;;;;;;;1.60;1.50;;;;;;;;;;5036188;28;20029;-87
2023/12/15 13:09:05;;;;;;;3.05;1.45;;;;;;;;;;5036126;28;20752;-86
2023/12/15 13:11:30;;;;;;;5.15;2.67;;;;;;;;;;5036066;28;20049;-86
2023/12/15 13:13:56;;;;;;;2.47;1.15;;;;;;;;;;5036454;28;20388;-87
2023/12/15 13:16:22;;;;;;;3.65;1.92;;;;;;;;;;5035205;28;20087;-86
2023/12/15 13:18:49;;;;;;;2.13;1.92;;;;;;;;;;5036906;28;20492;-87
2023/12/15 13:21:14;;;;;;;2.55;1.92;;;;;;;;;;5035883;28;20033;-89
2023/12/15 13:23:40;;;;;;;3.92;2.67;;;;;;;;;;5035410;28;20036;-86
2023/12/15 13:26:05;;;;;;;2.45;1.25;;;;;;;;;;5036378;28;20052;-86
2023/12/15 13:28:35;;;;;;;1.40;1.30;;;;;;;;;;5037021;28;20108;-87
2023/12/15 13:31:01;;;;;;;1.13;1.02;;;;;;;;;;5036981;28;20106;-86
2023/12/15 13:33:29;;;;;;;2.08;1.30;;;;;;;;;;5037054;28;20035;-86
2023/12/15 13:35:54;;;;;;;3.30;1.60;;;;;;;;;;5034562;28;20107;-86
2023/12/15 13:38:20;;;;;;;0.85;0.85;;;;;;;;;;5036116;28;20029;-85
2023/12/15 13:40:45;;;;;;;2.53;0.98;;;;;;;;;;5033231;28;20183;-87
2023/12/15 13:43:11;;;;;;;0.57;0.57;;;;;;;;;;5035445;28;20095;-89
2023/12/15 13:45:37;;;;;;;1.15;0.77;;;;;;;;;;5033219;28;20553;-88
2023/12/15 13:48:04;;;;;;;2.20;1.17;;;;;;;;;;5034186;28;20022;-87
2023/12/15 13:50:30;;;;;;;1.55;1.00;;;;;;;;;;5032438;28;20552;-88
2023/12/15 13:52:57;;;;;;;1.35;1.25;;;;;;;;;;5032851;28;20030;-89
2023/12/15 13:55:22;;;;;;;1.65;1.55;;;;;;;;;;5034261;28;20123;-87
2023/12/15 13:57:50;;;;;;;1.30;1.08;;;;;;;;;;5034658;28;20127;-87
2023/12/15 14:00:16;;;;;;;1.15;1.05;;;;;;;;;;5036167;28;20022;-87
2023/12/15 14:02:42;;;;;;;4.28;1.38;;;;;;;;;;5035012;28;20172;-88
2023/12/15 14:05:07;;;;;;;2.30;1.60;;;;;;;;;;5034543;28;20643;-88
2023/12/15 14:07:32;;;;;;;1.55;1.45;;;;;;;;;;5034802;28;20029;-88
2023/12/15 14:09:58;;;;;;;3.28;1.60;;;;;;;;;;5033678;28;20036;-88
2023/12/15 14:12:23;;;;;;;2.05;1.35;;;;;;;;;;5045893;28;20005;-91
2023/12/15 14:14:48;;;;;;;2.83;2.05;;;;;;;;;;5043358;28;20430;-86
2023/12/15 14:17:14;;;;;;;3.53;1.13;;;;;;;;;;5035883;28;20051;-88
2023/12/15 14:19:39;;;;;;;2.92;1.67;;;;;;;;;;5037089;28;20495;-86
2023/12/15 14:22:11;;;;;;;1.85;1.60;;;;;;;;;;5035306;28;20026;-88
2023/12/15 14:24:36;;;;;;;1.73;1.60;;;;;;;;;;5047785;28;20044;-85
2023/12/15 14:27:03;;;;;;;2.95;1.33;;;;;;;;;;5034935;28;20115;-86
2023/12/15 14:29:29;;;;;;;3.33;1.95;;;;;;;;;;5033854;28;20522;-87
2023/12/15 14:31:55;;;;;;;1.35;1.25;;;;;;;;;;5033633;28;20029;-89
2023/12/15 14:34:20;;;;;;;2.10;1.70;;;;;;;;;;5036548;28;20025;-86
2023/12/15 14:36:46;;;;;;;2.10;1.38;;;;;;;;;;5039330;28;20361;-88